createdAt,value
2019-02-10T00:02:01.378Z,181.05
2019-02-10T00:04:38.486Z,179.20
2019-02-10T00:07:15.800Z,306.63
2019-02-10T00:09:52.731Z,329.23
2019-02-10T00:12:29.988Z,234.05
2019-02-10T00:15:06.971Z,210.63
2019-02-10T00:17:43.954Z,234.40
2019-02-10T00:20:20.639Z,208.70
2019-02-10T00:22:56.999Z,238.28
2019-02-10T00:25:33.916Z,237.27
2019-02-10T00:28:10.702Z,253.10
2019-02-10T00:30:47.710Z,283.10
2019-02-10T00:33:24.340Z,303.67
2019-02-10T00:36:02.368Z,292.45
2019-02-10T00:38:39.156Z,278.20
2019-02-10T00:41:16.049Z,295.40
2019-02-10T00:43:52.477Z,287.27
2019-02-10T00:46:29.110Z,335.88
2019-02-10T00:49:06.564Z,353.02
2019-02-10T00:51:42.924Z,335.80
2019-02-10T00:54:20.659Z,335.88
2019-02-10T00:56:57.225Z,312.57
2019-02-10T00:59:34.272Z,304.80
2019-02-10T01:02:11.276Z,273.48
2019-02-10T01:04:49.971Z,250.55
2019-02-10T01:07:26.726Z,206.17
2019-02-10T01:10:03.733Z,226.35
2019-02-10T01:12:41.293Z,218.80
2019-02-10T01:15:17.876Z,216.08
2019-02-10T01:17:54.690Z,226.18
2019-02-10T01:20:31.508Z,231.68
2019-02-10T01:23:08.410Z,213.55
2019-02-10T01:25:45.253Z,212.50
2019-02-10T01:28:22.361Z,202.40
2019-02-10T01:30:58.835Z,195.57
2019-02-10T01:33:35.695Z,158.80
2019-02-10T01:36:12.523Z,181.02
2019-02-10T01:38:49.503Z,193.57
2019-02-10T01:41:26.296Z,175.55
2019-02-10T01:44:03.281Z,158.37
2019-02-10T01:46:39.806Z,172.13
2019-02-10T01:49:17.065Z,158.07
2019-02-10T01:51:53.824Z,160.55
2019-02-10T01:54:30.953Z,154.12
2019-02-10T01:57:07.610Z,167.32
2019-02-10T01:59:44.796Z,160.93
2019-02-10T02:02:21.521Z,167.13
2019-02-10T02:04:58.336Z,149.47
2019-02-10T02:07:35.926Z,143.13
2019-02-10T02:10:16.552Z,126.70
2019-02-10T02:12:53.515Z,120.77
2019-02-10T02:15:30.755Z,130.00
2019-02-10T02:18:08.078Z,112.68
2019-02-10T02:20:46.460Z,113.55
2019-02-10T02:23:23.431Z,122.53
2019-02-10T02:25:59.868Z,189.35
2019-02-10T02:28:36.753Z,117.20
2019-02-10T02:31:14.027Z,104.80
2019-02-10T02:33:51.022Z,91.57
2019-02-10T02:36:27.942Z,99.13
2019-02-10T02:39:04.034Z,113.52
2019-02-10T02:41:42.225Z,106.72
2019-02-10T02:44:18.866Z,112.85
2019-02-10T02:46:56.056Z,112.25
2019-02-10T02:49:32.997Z,112.60
2019-02-10T02:52:09.513Z,123.10
2019-02-10T02:54:46.566Z,109.63
2019-02-10T02:57:23.665Z,122.13
2019-02-10T03:00:00.506Z,116.33
2019-02-10T03:02:37.188Z,105.52
2019-02-10T03:05:14.938Z,105.50
2019-02-10T03:07:51.435Z,110.52
2019-02-10T03:10:28.280Z,98.47
2019-02-10T03:13:04.827Z,110.15
2019-02-10T03:15:41.936Z,94.15
2019-02-10T03:18:19.129Z,95.85
2019-02-10T03:20:55.977Z,103.53
2019-02-10T03:23:32.387Z,101.95
2019-02-10T03:26:09.531Z,97.10
2019-02-10T03:28:46.361Z,100.90
2019-02-10T03:31:23.471Z,99.35
2019-02-10T03:34:00.292Z,101.53
2019-02-10T03:36:37.444Z,98.25
2019-02-10T03:39:14.183Z,92.17
2019-02-10T03:41:51.312Z,94.07
2019-02-10T03:44:27.822Z,96.80
2019-02-10T03:47:04.851Z,92.33
2019-02-10T03:49:41.432Z,92.60
2019-02-10T03:52:18.405Z,91.08
2019-02-10T03:54:54.920Z,95.53
2019-02-10T03:57:31.686Z,92.45
2019-02-10T04:00:08.736Z,95.50
2019-02-10T04:02:45.588Z,102.32
2019-02-10T04:05:22.010Z,99.42
2019-02-10T04:07:58.899Z,118.87
2019-02-10T04:10:35.448Z,94.85
2019-02-10T04:13:12.063Z,96.12
2019-02-10T04:15:48.657Z,98.07
2019-02-10T04:18:26.129Z,108.85
2019-02-10T04:21:03.292Z,95.85
2019-02-10T04:23:39.698Z,89.35
2019-02-10T04:26:16.342Z,84.10
2019-02-10T04:28:53.032Z,74.67
2019-02-10T04:31:29.715Z,81.12
2019-02-10T04:34:06.281Z,82.22
2019-02-10T04:36:42.442Z,87.10
2019-02-10T04:39:18.534Z,79.97
2019-02-10T04:41:55.518Z,77.35
2019-02-10T04:44:32.284Z,85.38
2019-02-10T04:47:09.309Z,75.37
2019-02-10T04:49:45.825Z,72.20
2019-02-10T04:52:22.748Z,78.00
2019-02-10T04:54:59.308Z,82.27
2019-02-10T04:57:36.066Z,66.47
2019-02-10T05:00:13.116Z,75.72
2019-02-10T05:02:49.693Z,73.87
2019-02-10T05:05:26.464Z,79.22
2019-02-10T05:08:04.672Z,76.72
2019-02-10T05:10:41.562Z,71.92
2019-02-10T05:13:18.460Z,75.92
2019-02-10T05:15:54.586Z,69.05
2019-02-10T05:18:31.484Z,71.05
2019-02-10T05:21:07.859Z,74.45
2019-02-10T05:23:44.850Z,70.08
2019-02-10T05:26:21.641Z,78.33
2019-02-10T05:28:58.565Z,77.90
2019-02-10T05:31:35.223Z,75.55
2019-02-10T05:34:12.150Z,77.70
2019-02-10T05:36:48.526Z,77.10
2019-02-10T05:39:25.216Z,77.92
2019-02-10T05:42:01.712Z,76.70
2019-02-10T05:44:38.371Z,73.30
2019-02-10T05:47:14.853Z,72.15
2019-02-10T05:49:52.582Z,79.03
2019-02-10T05:52:29.276Z,75.12
2019-02-10T05:55:05.901Z,73.70
2019-02-10T05:57:42.673Z,75.10
2019-02-10T06:00:18.691Z,76.92
2019-02-10T06:02:55.355Z,83.10
2019-02-10T06:05:33.048Z,79.25
2019-02-10T06:08:13.735Z,71.37
2019-02-10T06:10:52.425Z,81.35
2019-02-10T06:13:31.442Z,74.10
2019-02-10T06:16:10.293Z,80.20
2019-02-10T06:18:48.865Z,159.35
2019-02-10T06:21:27.222Z,77.42
2019-02-10T06:24:05.979Z,79.10
2019-02-10T06:26:44.777Z,74.22
2019-02-10T06:29:23.452Z,68.12
2019-02-10T06:32:02.537Z,70.47
2019-02-10T06:34:41.504Z,75.55
2019-02-10T06:37:20.169Z,69.95
2019-02-10T06:39:58.874Z,74.58
2019-02-10T06:42:37.868Z,69.87
2019-02-10T06:45:18.374Z,70.65
2019-02-10T06:47:57.833Z,75.05
2019-02-10T06:50:36.171Z,74.70
2019-02-10T06:53:15.199Z,77.50
2019-02-10T06:55:53.543Z,70.15
2019-02-10T06:58:31.984Z,66.30
2019-02-10T07:01:30.868Z,70.03
2019-02-10T07:04:18.796Z,71.80
2019-02-10T07:06:57.745Z,83.55
2019-02-10T07:09:36.549Z,66.90
2019-02-10T07:12:47.128Z,62.45
2019-02-10T07:16:01.810Z,67.17
2019-02-10T07:19:13.031Z,64.03
2019-02-10T07:21:54.034Z,76.62
2019-02-10T07:24:54.311Z,101.10
2019-02-10T07:27:37.537Z,67.30
2019-02-10T07:30:52.265Z,68.72
2019-02-10T07:34:07.598Z,63.68
2019-02-10T07:37:12.344Z,69.80
2019-02-10T07:40:38.010Z,63.20
2019-02-10T07:43:56.244Z,62.67
2019-02-10T07:47:17.396Z,67.55
2019-02-10T07:50:27.152Z,66.20
2019-02-10T07:53:39.360Z,60.75
2019-02-10T07:56:50.237Z,62.23
2019-02-10T07:59:54.606Z,83.03
2019-02-10T08:03:20.514Z,77.00
2019-02-10T08:06:48.995Z,129.95
2019-02-10T08:09:40.766Z,74.00
2019-02-10T08:12:38.484Z,74.77
2019-02-10T08:15:42.484Z,65.70
2019-02-10T08:18:57.288Z,76.20
2019-02-10T08:22:15.525Z,66.82
2019-02-10T08:25:27.137Z,69.77
2019-02-10T08:28:22.979Z,74.72
2019-02-10T08:31:19.650Z,70.03
2019-02-10T08:34:48.311Z,78.42
2019-02-10T08:37:58.375Z,77.80
2019-02-10T08:41:18.354Z,72.53
2019-02-10T08:44:19.877Z,70.37
2019-02-10T08:47:20.193Z,73.05
2019-02-10T08:50:28.994Z,81.10
2019-02-10T08:53:20.271Z,74.45
2019-02-10T08:55:59.130Z,74.92
2019-02-10T08:58:37.609Z,86.57
2019-02-10T09:01:16.141Z,66.85
2019-02-10T09:03:54.837Z,69.65
2019-02-10T09:06:33.428Z,66.55
2019-02-10T09:09:13.031Z,78.83
2019-02-10T09:11:51.772Z,72.92
2019-02-10T09:14:30.609Z,68.75
2019-02-10T09:17:09.945Z,63.52
2019-02-10T09:19:48.782Z,70.17
2019-02-10T09:22:27.562Z,65.35
2019-02-10T09:25:06.405Z,64.00
2019-02-10T09:27:44.959Z,62.95
2019-02-10T09:30:24.328Z,64.10
2019-02-10T09:33:03.015Z,66.00
2019-02-10T09:35:41.844Z,64.15
2019-02-10T09:38:20.609Z,62.40
2019-02-10T09:40:59.646Z,68.65
2019-02-10T09:43:39.998Z,63.87
2019-02-10T09:46:19.151Z,62.05
2019-02-10T09:48:57.791Z,70.75
2019-02-10T09:51:37.830Z,67.75
2019-02-10T09:54:16.759Z,65.10
2019-02-10T09:56:56.274Z,65.45
2019-02-10T09:59:34.533Z,64.35
2019-02-10T10:02:13.202Z,66.80
2019-02-10T10:04:51.877Z,60.50
2019-02-10T10:07:31.069Z,80.55
2019-02-10T10:10:09.877Z,75.85
2019-02-10T10:12:49.679Z,66.65
2019-02-10T10:15:28.269Z,85.00
2019-02-10T10:18:07.439Z,120.02
2019-02-10T10:20:46.292Z,101.55
2019-02-10T10:23:25.106Z,139.45
2019-02-10T10:26:03.822Z,176.78
2019-02-10T10:28:42.563Z,148.75
2019-02-10T10:31:21.177Z,146.65
2019-02-10T10:33:59.917Z,142.07
2019-02-10T10:36:38.733Z,104.35
2019-02-10T10:39:17.587Z,95.30
2019-02-10T10:41:56.406Z,89.58
2019-02-10T10:44:35.479Z,98.17
2019-02-10T10:47:14.458Z,89.72
2019-02-10T10:49:53.349Z,85.10
2019-02-10T10:52:32.413Z,89.97
2019-02-10T10:55:11.154Z,88.22
2019-02-10T10:57:50.225Z,89.15
2019-02-10T11:00:29.065Z,91.97
2019-02-10T11:03:07.878Z,114.67
2019-02-10T11:05:46.481Z,147.72
2019-02-10T11:08:25.115Z,115.52
2019-02-10T11:11:04.024Z,106.50
2019-02-10T11:13:42.871Z,96.28
2019-02-10T11:16:21.545Z,97.60
2019-02-10T11:19:00.865Z,105.25
2019-02-10T11:21:39.294Z,111.70
2019-02-10T11:24:18.232Z,108.67
2019-02-10T11:26:56.671Z,105.17
2019-02-10T11:29:35.394Z,106.87
2019-02-10T11:32:13.790Z,114.03
2019-02-10T11:34:52.565Z,104.12
2019-02-10T11:37:31.354Z,106.10
2019-02-10T11:40:10.756Z,99.42
2019-02-10T11:42:49.714Z,102.87
2019-02-10T11:45:28.327Z,104.40
2019-02-10T11:48:07.912Z,105.07
2019-02-10T11:50:46.635Z,94.58
2019-02-10T11:53:25.585Z,88.55
2019-02-10T11:56:04.027Z,98.47
2019-02-10T11:58:43.051Z,93.97
2019-02-10T12:01:21.840Z,101.78
2019-02-10T12:04:01.054Z,94.47
2019-02-10T12:06:39.814Z,109.78
2019-02-10T12:09:18.427Z,87.67
2019-02-10T12:11:57.460Z,98.95
2019-02-10T12:14:36.240Z,98.33
2019-02-10T12:17:15.448Z,93.37
2019-02-10T12:19:54.575Z,97.65
2019-02-10T12:22:33.320Z,87.85
2019-02-10T12:25:12.890Z,88.22
2019-02-10T12:27:51.510Z,100.02
2019-02-10T12:30:30.168Z,88.72
2019-02-10T12:33:08.795Z,91.28
2019-02-10T12:35:47.455Z,93.97
2019-02-10T12:38:27.494Z,94.40
2019-02-10T12:41:06.698Z,87.25
2019-02-10T12:43:45.469Z,95.53
2019-02-10T12:46:24.691Z,93.25
2019-02-10T12:49:03.643Z,97.75
2019-02-10T12:51:43.028Z,87.75
2019-02-10T12:54:21.417Z,91.65
2019-02-10T12:57:00.634Z,91.10
2019-02-10T12:59:40.026Z,99.45
2019-02-10T13:02:18.815Z,92.27
2019-02-10T13:04:57.707Z,91.05
2019-02-10T13:07:36.561Z,106.07
2019-02-10T13:10:18.315Z,96.78
2019-02-10T13:12:58.505Z,103.42
2019-02-10T13:15:37.103Z,90.55
2019-02-10T13:18:18.088Z,96.60
2019-02-10T13:20:57.255Z,90.92
2019-02-10T13:23:37.238Z,94.83
2019-02-10T13:26:15.749Z,95.35
2019-02-10T13:28:54.569Z,101.58
2019-02-10T13:31:34.591Z,104.20
2019-02-10T13:34:13.518Z,100.50
2019-02-10T13:36:52.357Z,99.15
2019-02-10T13:39:31.282Z,96.90
2019-02-10T13:42:09.885Z,85.35
2019-02-10T13:44:48.551Z,101.00
2019-02-10T13:47:28.155Z,95.72
2019-02-10T13:50:06.675Z,90.47
2019-02-10T13:52:45.546Z,95.47
2019-02-10T13:55:24.990Z,103.80
2019-02-10T13:58:03.610Z,100.45
2019-02-10T14:00:42.543Z,97.75
2019-02-10T14:03:20.760Z,99.28
2019-02-10T14:05:59.674Z,95.67
2019-02-10T14:08:39.198Z,104.63
2019-02-10T14:11:18.299Z,95.92
2019-02-10T14:13:57.330Z,94.83
2019-02-10T14:16:36.874Z,102.55
2019-02-10T14:19:21.879Z,95.67
2019-02-10T14:22:01.193Z,94.72
2019-02-10T14:24:39.809Z,103.42
2019-02-10T14:27:19.835Z,97.78
2019-02-10T14:29:58.865Z,100.25
2019-02-10T14:32:39.820Z,106.87
2019-02-10T14:35:19.817Z,103.20
2019-02-10T14:37:58.488Z,102.55
2019-02-10T14:40:37.191Z,106.07
2019-02-10T14:43:15.793Z,106.43
2019-02-10T14:45:55.196Z,104.30
2019-02-10T14:48:36.644Z,101.72
2019-02-10T14:51:15.831Z,104.43
2019-02-10T14:53:54.818Z,101.53
2019-02-10T14:56:33.871Z,106.22
2019-02-10T14:59:12.599Z,108.92
2019-02-10T15:01:52.136Z,100.95
2019-02-10T15:04:31.932Z,106.07
2019-02-10T15:07:16.511Z,111.08
2019-02-10T15:09:55.076Z,104.92
2019-02-10T15:12:34.404Z,96.20
2019-02-10T15:15:13.440Z,95.62
2019-02-10T15:17:53.340Z,102.32
2019-02-10T15:20:31.965Z,95.38
2019-02-10T15:23:11.609Z,105.67
2019-02-10T15:25:50.418Z,93.80
2019-02-10T15:28:29.518Z,98.60
2019-02-10T15:31:08.173Z,97.95
2019-02-10T15:33:47.042Z,94.20
2019-02-10T15:36:25.736Z,96.87
2019-02-10T15:39:05.028Z,95.35
2019-02-10T15:41:44.886Z,96.70
2019-02-10T15:44:23.644Z,100.75
2019-02-10T15:47:02.135Z,108.32
2019-02-10T15:49:40.984Z,108.95
2019-02-10T15:52:20.365Z,123.82
2019-02-10T15:54:59.796Z,127.58
2019-02-10T15:57:38.528Z,105.35
2019-02-10T16:00:20.392Z,118.62
2019-02-10T16:02:59.676Z,112.42
2019-02-10T16:05:38.942Z,115.80
2019-02-10T16:08:17.483Z,105.30
2019-02-10T16:10:58.114Z,109.15
2019-02-10T16:13:37.511Z,107.22
2019-02-10T16:16:16.747Z,107.90
2019-02-10T16:18:56.206Z,101.97
2019-02-10T16:21:34.959Z,106.65
2019-02-10T16:24:14.219Z,108.25
2019-02-10T16:26:53.278Z,105.07
2019-02-10T16:29:32.473Z,108.92
2019-02-10T16:32:11.115Z,108.40
2019-02-10T16:34:50.094Z,103.25
2019-02-10T16:37:28.764Z,113.10
2019-02-10T16:40:08.050Z,103.10
2019-02-10T16:42:46.868Z,122.13
2019-02-10T16:45:26.125Z,168.62
2019-02-10T16:48:05.270Z,149.05
2019-02-10T16:50:44.255Z,142.05
2019-02-10T16:53:23.468Z,137.88
2019-02-10T16:56:03.084Z,138.37
2019-02-10T16:58:41.583Z,152.50
2019-02-10T17:01:20.540Z,152.15
2019-02-10T17:03:59.138Z,158.75
2019-02-10T17:06:38.308Z,150.35
2019-02-10T17:09:16.727Z,138.25
2019-02-10T17:11:55.678Z,142.18
2019-02-10T17:14:34.554Z,124.95
2019-02-10T17:17:13.624Z,123.92
2019-02-10T17:19:52.270Z,123.18
2019-02-10T17:22:30.960Z,121.45
2019-02-10T17:25:11.375Z,125.87
2019-02-10T17:27:50.602Z,126.05
2019-02-10T17:30:29.282Z,120.17
2019-02-10T17:33:08.397Z,120.53
2019-02-10T17:35:47.124Z,129.65
2019-02-10T17:38:26.053Z,127.58
2019-02-10T17:41:22.355Z,127.80
2019-02-10T17:43:54.732Z,122.60
2019-02-10T17:46:33.395Z,126.60
2019-02-10T17:49:12.340Z,126.25
2019-02-10T17:51:51.107Z,129.78
2019-02-10T17:54:30.091Z,138.70
2019-02-10T17:57:10.159Z,187.95
2019-02-10T17:59:49.349Z,186.32
2019-02-10T18:02:28.014Z,192.80
2019-02-10T18:05:07.081Z,175.80
2019-02-10T18:07:45.664Z,168.37
2019-02-10T18:10:24.788Z,154.72
2019-02-10T18:13:03.600Z,162.25
2019-02-10T18:15:58.480Z,153.47
2019-02-10T18:19:02.110Z,149.15
2019-02-10T18:21:58.704Z,154.55
2019-02-10T18:24:52.947Z,147.32
2019-02-10T18:27:40.756Z,144.45
2019-02-10T18:30:43.784Z,143.80
2019-02-10T18:33:38.631Z,157.35
2019-02-10T18:36:35.416Z,154.93
2019-02-10T18:39:29.490Z,148.20
2019-02-10T18:42:24.375Z,155.03
2019-02-10T18:45:29.248Z,153.32
2019-02-10T18:48:25.492Z,144.17
2019-02-10T18:51:16.075Z,148.47
2019-02-10T18:54:23.183Z,146.72
2019-02-10T18:57:32.051Z,142.57
2019-02-10T19:00:25.496Z,135.65
2019-02-10T19:03:14.989Z,151.12
2019-02-10T19:06:18.871Z,143.95
2019-02-10T19:09:05.364Z,141.47
2019-02-10T19:12:10.633Z,150.47
2019-02-10T19:15:19.743Z,142.30
2019-02-10T19:18:11.928Z,138.77
2019-02-10T19:21:08.520Z,146.22
2019-02-10T19:23:56.785Z,156.80
2019-02-10T19:26:56.275Z,147.55
2019-02-10T19:29:55.173Z,161.25
2019-02-10T19:33:09.964Z,154.78
2019-02-10T19:36:04.843Z,184.00
2019-02-10T19:38:55.610Z,200.35
2019-02-10T19:41:55.462Z,197.17
2019-02-10T19:44:30.510Z,173.68
2019-02-10T19:47:30.028Z,158.40
2019-02-10T19:50:15.813Z,151.57
2019-02-10T19:53:06.383Z,147.15
2019-02-10T19:55:58.448Z,150.53
2019-02-10T19:59:01.454Z,142.18
2019-02-10T20:01:57.202Z,145.43
2019-02-10T20:04:53.604Z,142.68
2019-02-10T20:07:50.327Z,147.57
2019-02-10T20:10:54.232Z,151.32
2019-02-10T20:13:49.498Z,153.40
2019-02-10T20:16:46.027Z,145.22
2019-02-10T20:19:38.173Z,161.10
2019-02-10T20:22:46.656Z,182.20
2019-02-10T20:25:46.379Z,184.22
2019-02-10T20:28:40.753Z,166.07
2019-02-10T20:31:29.694Z,149.23
2019-02-10T20:34:16.172Z,142.53
2019-02-10T20:37:20.801Z,132.27
2019-02-10T20:40:22.309Z,136.62
2019-02-10T20:43:21.816Z,129.63
2019-02-10T20:46:30.235Z,122.35
2019-02-10T20:49:36.555Z,119.62
2019-02-10T20:52:46.166Z,119.87
2019-02-10T20:55:40.047Z,121.10
2019-02-10T20:58:42.721Z,112.80
2019-02-10T21:01:37.829Z,112.55
2019-02-10T21:04:27.076Z,111.47
2019-02-10T21:07:15.907Z,114.55
2019-02-10T21:10:27.661Z,105.32
2019-02-10T21:13:19.729Z,123.90
2019-02-10T21:16:14.697Z,106.05
2019-02-10T21:19:00.376Z,108.60
2019-02-10T21:22:04.808Z,85.72
2019-02-10T21:24:53.838Z,95.72
2019-02-10T21:27:50.138Z,85.10
2019-02-10T21:30:46.662Z,80.30
2019-02-10T21:33:52.505Z,81.65
2019-02-10T21:36:52.009Z,81.22
2019-02-10T21:39:51.625Z,78.90
2019-02-10T21:42:46.530Z,85.90
2019-02-10T21:45:55.052Z,86.70
2019-02-10T21:48:51.638Z,92.40
2019-02-10T21:51:30.413Z,86.05
2019-02-10T21:54:09.371Z,85.77
2019-02-10T21:56:47.893Z,88.50
2019-02-10T21:59:26.342Z,89.13
2019-02-10T22:02:05.060Z,92.75
2019-02-10T22:04:45.042Z,94.92
2019-02-10T22:07:24.191Z,93.22
2019-02-10T22:10:02.834Z,87.95
2019-02-10T22:12:41.728Z,89.75
2019-02-10T22:15:20.282Z,91.05
2019-02-10T22:17:59.385Z,83.60
2019-02-10T22:20:37.943Z,83.60
2019-02-10T22:23:16.882Z,97.65
2019-02-10T22:25:55.733Z,88.50
2019-02-10T22:28:34.666Z,84.52
2019-02-10T22:31:18.849Z,84.77
2019-02-10T22:33:54.548Z,75.92
2019-02-10T22:36:33.435Z,80.05
2019-02-10T22:39:12.383Z,74.50
2019-02-10T22:41:51.401Z,75.00
2019-02-10T22:44:29.988Z,71.77
2019-02-10T22:47:08.638Z,78.95
2019-02-10T22:49:47.553Z,82.35
2019-02-10T22:52:26.002Z,74.30
2019-02-10T22:55:04.869Z,71.55
2019-02-10T22:57:47.853Z,71.00
2019-02-10T23:00:53.121Z,71.85
2019-02-10T23:03:32.551Z,73.75
2019-02-10T23:06:11.753Z,74.75
2019-02-10T23:08:50.535Z,69.55
2019-02-10T23:11:29.315Z,68.50
2019-02-10T23:14:08.224Z,74.17
2019-02-10T23:16:47.127Z,71.25
2019-02-10T23:19:25.569Z,66.00
2019-02-10T23:22:04.903Z,64.67
2019-02-10T23:24:43.709Z,58.52
2019-02-10T23:27:22.806Z,62.85
2019-02-10T23:30:01.592Z,59.25
2019-02-10T23:32:40.664Z,59.08
2019-02-10T23:35:19.260Z,63.38
2019-02-10T23:37:58.232Z,65.32
2019-02-10T23:40:37.195Z,60.25
2019-02-10T23:43:16.178Z,59.65
2019-02-10T23:45:55.171Z,66.40
2019-02-10T23:48:34.398Z,62.23
2019-02-10T23:51:13.057Z,62.58
2019-02-10T23:53:51.209Z,61.83
2019-02-10T23:56:30.087Z,63.73
2019-02-10T23:59:09.115Z,67.35
